Time;durP1;ratioP1;P1;durP2;ratioP2;P2;SDS_P1;SDS_P2;PMS_P1;PMS_P2;Temp;Humidity;BMP_temperature;BMP_pressure;BME280_temperature;BME280_humidity;BME280_pressure;Samples;Min_cycle;Max_cycle;Signal;HPM_P1;HPM_P2
2023/01/06 00:00:29;;;;;;;2.40;1.60;;;8.80;99.90;;;;;;4991641;28;20386;-74
2023/01/06 00:02:55;;;;;;;2.25;1.60;;;8.70;99.90;;;;;;4990806;28;20402;-74
2023/01/06 00:05:21;;;;;;;1.83;1.60;;;8.70;99.90;;;;;;4991496;28;20418;-74
2023/01/06 00:07:50;;;;;;;1.97;1.80;;;8.70;99.90;;;;;;4991623;28;20760;-73
2023/01/06 00:10:16;;;;;;;1.80;1.70;;;8.70;99.90;;;;;;4991372;28;21145;-73
2023/01/06 00:12:45;;;;;;;1.60;1.50;;;8.60;99.90;;;;;;4990610;28;20398;-73
2023/01/06 00:15:12;;;;;;;1.65;1.52;;;8.70;99.90;;;;;;4990840;28;20390;-73
2023/01/06 00:17:38;;;;;;;1.95;1.73;;;8.60;99.90;;;;;;4991414;28;20414;-73
2023/01/06 00:20:04;;;;;;;4.20;2.10;;;8.70;99.90;;;;;;4991164;28;20813;-73
2023/01/06 00:22:30;;;;;;;2.20;1.70;;;8.60;99.90;;;;;;4990611;28;20403;-73
2023/01/06 00:24:55;;;;;;;2.40;1.70;;;8.50;99.90;;;;;;4990924;28;20406;-74
2023/01/06 00:27:21;;;;;;;3.30;2.00;;;8.50;99.90;;;;;;4990971;28;20398;-73
2023/01/06 00:29:48;;;;;;;2.40;1.90;;;8.50;99.90;;;;;;4991084;28;20449;-73
2023/01/06 00:32:14;;;;;;;2.03;1.70;;;8.50;99.90;;;;;;4991189;28;20383;-73
2023/01/06 00:34:39;;;;;;;2.35;1.52;;;8.50;99.90;;;;;;4972866;28;20397;-73
2023/01/06 00:37:05;;;;;;;1.60;1.50;;;8.50;99.90;;;;;;4990674;28;20769;-73
2023/01/06 00:39:30;;;;;;;2.20;1.50;;;8.50;99.90;;;;;;4991188;28;20430;-74
2023/01/06 00:42:02;;;;;;;2.40;1.20;;;8.50;99.90;;;;;;4990977;28;20456;-73
2023/01/06 00:44:34;;;;;;;2.15;1.75;;;8.50;99.90;;;;;;4990457;28;20848;-73
2023/01/06 00:47:01;;;;;;;2.92;1.70;;;8.40;99.90;;;;;;4990566;28;20382;-73
2023/01/06 00:49:27;;;;;;;1.75;1.50;;;8.40;99.90;;;;;;4990940;28;20398;-73
2023/01/06 00:51:53;;;;;;;2.30;2.08;;;8.30;99.90;;;;;;4990995;28;20382;-73
2023/01/06 00:54:19;;;;;;;1.88;1.70;;;8.20;99.90;;;;;;4989987;28;20393;-73
2023/01/06 00:56:46;;;;;;;3.70;1.60;;;8.10;99.90;;;;;;4990700;28;20493;-73
2023/01/06 00:59:14;;;;;;;2.35;1.67;;;8.10;99.90;;;;;;4991076;28;20876;-73
2023/01/06 01:01:41;;;;;;;1.77;1.60;;;8.10;99.90;;;;;;4990811;28;20870;-72
2023/01/06 01:04:07;;;;;;;2.58;1.80;;;8.00;99.90;;;;;;4989950;28;20394;-72
2023/01/06 01:06:33;;;;;;;3.50;1.60;;;7.90;99.90;;;;;;4990711;28;20904;-72
2023/01/06 01:09:00;;;;;;;3.17;1.90;;;7.90;99.90;;;;;;4990608;28;20789;-72
2023/01/06 01:14:11;;;;;;;2.30;1.63;;;7.70;99.90;;;;;;4989962;28;20899;-72
2023/01/06 01:16:38;;;;;;;2.25;2.03;;;7.70;99.90;;;;;;4990751;28;20405;-72
2023/01/06 01:19:04;;;;;;;2.05;1.67;;;7.70;99.90;;;;;;4990552;28;20465;-72
2023/01/06 01:21:30;;;;;;;1.52;1.40;;;7.70;99.90;;;;;;5036042;23;20828;-74
2023/01/06 01:23:56;;;;;;;1.53;1.43;;;7.70;99.90;;;;;;5029509;28;20383;-73
2023/01/06 01:26:21;;;;;;;1.63;1.38;;;7.70;99.90;;;;;;5030093;28;20406;-73
2023/01/06 01:28:47;;;;;;;1.70;1.60;;;7.60;99.90;;;;;;5032950;28;20809;-73
2023/01/06 01:31:14;;;;;;;3.07;1.50;;;7.60;99.90;;;;;;5023561;28;20393;-72
2023/01/06 01:33:40;;;;;;;2.45;1.60;;;7.60;99.90;;;;;;5013094;28;20392;-73
2023/01/06 01:36:08;;;;;;;1.30;1.20;;;7.50;99.90;;;;;;5014247;28;20400;-73
2023/01/06 01:38:34;;;;;;;1.50;1.40;;;7.50;99.90;;;;;;5014087;28;20929;-73
2023/01/06 01:41:00;;;;;;;2.38;1.70;;;7.50;99.90;;;;;;5013806;28;20431;-75
2023/01/06 01:43:41;;;;;;;3.30;1.90;;;7.40;99.90;;;;;;5013453;28;20732;-73
2023/01/06 01:46:06;;;;;;;1.50;1.40;;;7.40;99.90;;;;;;5014247;28;20409;-72
2023/01/06 01:48:34;;;;;;;1.60;1.30;;;7.40;99.90;;;;;;5014213;28;20462;-73
2023/01/06 01:51:03;;;;;;;1.70;1.25;;;7.40;99.90;;;;;;5013823;28;20479;-73
2023/01/06 01:53:32;;;;;;;1.63;1.52;;;7.30;99.90;;;;;;5013154;28;20392;-72
2023/01/06 01:56:02;;;;;;;2.10;1.20;;;7.30;99.90;;;;;;5013905;28;20444;-73
2023/01/06 01:58:33;;;;;;;3.05;1.30;;;7.20;99.90;;;;;;5014111;28;20539;-73
2023/01/06 02:00:58;;;;;;;1.60;1.50;;;7.30;99.90;;;;;;5013320;28;20388;-73
2023/01/06 02:03:25;;;;;;;1.60;1.40;;;7.20;99.90;;;;;;5013247;28;20909;-73
2023/01/06 02:05:55;;;;;;;1.60;1.40;;;7.30;99.90;;;;;;5013755;28;20412;-73
2023/01/06 02:08:37;;;;;;;1.90;1.48;;;7.30;99.90;;;;;;5013906;28;20799;-72
2023/01/06 02:11:04;;;;;;;2.00;1.20;;;7.30;99.90;;;;;;5013457;28;20479;-76
2023/01/06 02:13:31;;;;;;;1.75;1.20;;;7.20;99.90;;;;;;5012994;28;20404;-72
2023/01/06 02:16:27;;;;;;;2.00;1.50;;;7.20;99.90;;;;;;5013455;28;20389;-73
2023/01/06 02:19:21;;;;;;;1.40;1.30;;;7.10;99.90;;;;;;5013411;28;20385;-73
2023/01/06 02:22:20;;;;;;;2.40;1.50;;;7.10;99.90;;;;;;5012824;28;20495;-73
2023/01/06 02:25:15;;;;;;;1.40;1.30;;;7.10;99.90;;;;;;5011535;28;22192;-73
2023/01/06 02:28:04;;;;;;;1.60;1.10;;;7.00;99.90;;;;;;5013240;28;20759;-72
2023/01/06 02:30:39;;;;;;;1.52;1.33;;;7.10;99.90;;;;;;4993537;28;21019;-73
2023/01/06 02:33:24;;;;;;;2.03;1.40;;;7.00;99.90;;;;;;4992655;28;20449;-73
2023/01/06 02:35:49;;;;;;;1.73;1.60;;;7.00;99.90;;;;;;4993436;28;20390;-73
2023/01/06 02:38:38;;;;;;;1.40;1.30;;;7.00;99.90;;;;;;4996187;28;20450;-73
2023/01/06 02:41:22;;;;;;;1.80;1.40;;;7.00;99.90;;;;;;5012754;28;20384;-73
2023/01/06 02:44:18;;;;;;;3.63;1.60;;;6.80;99.90;;;;;;5011789;28;20400;-73
2023/01/06 02:47:14;;;;;;;3.45;1.60;;;6.80;99.90;;;;;;5012395;28;20965;-72
2023/01/06 02:50:11;;;;;;;1.55;1.30;;;6.70;99.90;;;;;;5012592;28;20389;-72
2023/01/06 02:52:52;;;;;;;3.20;2.10;;;6.70;99.90;;;;;;5011856;28;20769;-72
2023/01/06 02:55:31;;;;;;;1.85;1.60;;;6.80;99.90;;;;;;5012642;28;20392;-73
2023/01/06 02:58:08;;;;;;;2.30;1.80;;;6.80;99.90;;;;;;5010991;28;20863;-72
2023/01/06 03:00:35;;;;;;;2.40;1.55;;;6.80;99.90;;;;;;5012533;28;20751;-72
2023/01/06 03:03:06;;;;;;;4.88;2.15;;;6.80;99.90;;;;;;5011548;28;20393;-72
2023/01/06 03:05:34;;;;;;;2.20;2.00;;;6.70;99.90;;;;;;5012205;28;20427;-73
2023/01/06 03:08:03;;;;;;;2.00;1.48;;;6.60;99.90;;;;;;5010707;28;20468;-72
2023/01/06 03:10:30;;;;;;;1.92;1.33;;;6.60;99.90;;;;;;5012187;28;20736;-72
2023/01/06 03:13:14;;;;;;;1.40;1.30;;;6.50;99.90;;;;;;5011467;28;20381;-73
2023/01/06 03:15:40;;;;;;;3.72;1.50;;;6.50;99.90;;;;;;5011691;28;20401;-73
2023/01/06 03:18:06;;;;;;;2.07;1.37;;;6.50;99.90;;;;;;5012059;28;20396;-72
2023/01/06 03:20:31;;;;;;;1.70;1.40;;;6.50;99.90;;;;;;5011985;28;20487;-72
2023/01/06 03:22:57;;;;;;;2.17;1.50;;;6.50;99.90;;;;;;5011212;28;20508;-73
2023/01/06 03:25:23;;;;;;;2.30;1.10;;;6.50;99.90;;;;;;5011319;28;20483;-73
2023/01/06 03:27:48;;;;;;;1.17;1.08;;;6.50;99.90;;;;;;5011841;28;20380;-73
2023/01/06 03:30:15;;;;;;;1.40;1.30;;;6.50;99.90;;;;;;5011834;28;20890;-74
2023/01/06 03:32:59;;;;;;;1.10;1.00;;;6.50;99.90;;;;;;5009861;28;20755;-73
2023/01/06 03:35:59;;;;;;;0.90;0.90;;;6.50;99.90;;;;;;5011282;28;20408;-73
2023/01/06 03:38:55;;;;;;;1.40;1.10;;;6.30;99.90;;;;;;5011660;28;20487;-73
2023/01/06 03:43:10;;;;;;;1.20;1.10;;;6.30;99.90;;;;;;5011730;28;20775;-72
2023/01/06 03:44:31;;;;;;;1.10;1.00;;;6.30;99.90;;;;;;5010834;28;20733;-72
2023/01/06 03:47:08;;;;;;;2.88;1.23;;;6.30;99.90;;;;;;5011248;28;20499;-72
2023/01/06 03:49:42;;;;;;;1.00;0.90;;;6.40;99.90;;;;;;5011318;28;20400;-72
2023/01/06 03:52:21;;;;;;;1.20;1.00;;;6.30;99.90;;;;;;5010737;28;20373;-72
2023/01/06 03:55:05;;;;;;;2.60;1.20;;;6.30;99.90;;;;;;5010484;28;20756;-73
2023/01/06 03:57:35;;;;;;;1.10;1.00;;;6.20;99.90;;;;;;5011363;28;20396;-72
2023/01/06 04:00:18;;;;;;;1.27;1.17;;;6.30;99.90;;;;;;5011368;28;20554;-73
2023/01/06 04:02:45;;;;;;;2.63;1.40;;;6.40;99.90;;;;;;5010212;28;20423;-72
2023/01/06 04:05:17;;;;;;;1.10;1.00;;;6.40;99.90;;;;;;5011249;28;20437;-72
2023/01/06 04:07:43;;;;;;;1.90;0.88;;;6.40;99.90;;;;;;5011033;28;20380;-72
2023/01/06 04:10:10;;;;;;;1.00;0.90;;;6.40;99.90;;;;;;5011134;28;20778;-72
2023/01/06 04:12:39;;;;;;;1.40;0.90;;;6.40;99.90;;;;;;5010101;28;20435;-73
2023/01/06 04:15:04;;;;;;;1.20;0.90;;;6.40;99.90;;;;;;5009662;28;20407;-73
2023/01/06 04:17:30;;;;;;;1.48;1.20;;;6.40;99.90;;;;;;5011167;28;20472;-73
2023/01/06 04:19:55;;;;;;;1.07;0.97;;;6.40;99.90;;;;;;5011032;28;20396;-73
2023/01/06 04:22:21;;;;;;;1.20;1.10;;;6.40;99.90;;;;;;5010060;28;20408;-73
2023/01/06 04:24:46;;;;;;;1.35;0.82;;;6.40;99.90;;;;;;5008357;28;20404;-72
2023/01/06 04:27:12;;;;;;;1.37;1.00;;;6.40;99.90;;;;;;5010658;28;20544;-73
2023/01/06 04:29:37;;;;;;;1.00;0.90;;;6.50;99.90;;;;;;5010561;28;20740;-73
2023/01/06 04:32:03;;;;;;;1.20;1.10;;;6.50;99.90;;;;;;5010701;28;20400;-72
2023/01/06 04:34:29;;;;;;;0.90;0.90;;;6.40;99.90;;;;;;5010290;28;20464;-73
2023/01/06 04:36:54;;;;;;;1.17;1.07;;;6.30;99.90;;;;;;5011199;28;20395;-73
2023/01/06 04:39:20;;;;;;;1.40;1.30;;;6.40;99.90;;;;;;5010704;28;20393;-73
2023/01/06 04:41:45;;;;;;;1.50;1.40;;;6.40;99.90;;;;;;5011040;28;20388;-72
2023/01/06 04:44:11;;;;;;;1.42;1.30;;;6.40;99.90;;;;;;5009368;28;20396;-73
2023/01/06 04:46:36;;;;;;;1.10;0.95;;;6.30;99.90;;;;;;5010815;28;20405;-73
2023/01/06 04:49:02;;;;;;;1.20;1.10;;;6.30;99.90;;;;;;5010673;28;20397;-73
2023/01/06 04:51:28;;;;;;;1.40;1.30;;;6.30;99.90;;;;;;5010504;28;20455;-72
2023/01/06 04:53:54;;;;;;;1.50;1.20;;;6.30;99.90;;;;;;5010133;28;20436;-72
2023/01/06 04:56:20;;;;;;;1.10;1.00;;;6.40;99.90;;;;;;5011107;28;20393;-72
2023/01/06 04:58:45;;;;;;;1.73;1.10;;;6.40;99.90;;;;;;5010979;28;20389;-72
2023/01/06 05:01:11;;;;;;;1.10;0.90;;;6.40;99.90;;;;;;5010581;28;20537;-72
2023/01/06 05:03:38;;;;;;;1.13;1.00;;;6.50;99.90;;;;;;5014114;28;20414;-72
2023/01/06 05:06:09;;;;;;;1.40;1.10;;;6.50;99.90;;;;;;5013485;28;20408;-72
2023/01/06 05:08:36;;;;;;;1.20;1.10;;;6.50;99.90;;;;;;5014539;28;20415;-72
2023/01/06 05:11:08;;;;;;;0.97;0.90;;;6.60;99.90;;;;;;5014771;28;20412;-72
2023/01/06 05:13:34;;;;;;;1.00;0.80;;;6.60;99.90;;;;;;5013853;28;20418;-72
2023/01/06 05:16:04;;;;;;;1.50;1.00;;;6.60;99.90;;;;;;5014763;28;20396;-72
2023/01/06 05:18:29;;;;;;;4.22;1.10;;;6.60;99.90;;;;;;5014410;28;20475;-73
2023/01/06 05:20:55;;;;;;;2.97;0.90;;;6.70;99.90;;;;;;5014625;28;20551;-73
2023/01/06 05:23:21;;;;;;;1.13;1.00;;;6.70;99.90;;;;;;5013610;28;20452;-73
2023/01/06 05:25:50;;;;;;;1.17;0.80;;;6.70;99.90;;;;;;5014448;28;20408;-72
2023/01/06 05:28:16;;;;;;;1.40;1.00;;;6.80;99.90;;;;;;5014354;28;20881;-72
2023/01/06 05:30:42;;;;;;;2.10;1.10;;;6.80;99.90;;;;;;5014348;28;20420;-73
2023/01/06 05:33:07;;;;;;;2.10;1.00;;;6.80;99.90;;;;;;5012849;28;20421;-73
2023/01/06 05:35:33;;;;;;;1.00;0.90;;;6.80;99.90;;;;;;5013772;28;20551;-73
2023/01/06 05:37:59;;;;;;;1.43;1.00;;;6.80;99.90;;;;;;5014336;28;20393;-72
2023/01/06 05:40:24;;;;;;;1.17;1.07;;;6.90;99.90;;;;;;5014317;28;20555;-72
2023/01/06 05:42:54;;;;;;;1.55;1.40;;;6.90;99.90;;;;;;5013128;28;20451;-72
2023/01/06 05:45:19;;;;;;;1.20;1.10;;;6.90;99.90;;;;;;5013610;28;20440;-73
2023/01/06 05:47:45;;;;;;;1.80;1.00;;;6.90;99.90;;;;;;5014276;28;20381;-73
2023/01/06 05:50:10;;;;;;;1.00;0.90;;;7.00;99.90;;;;;;5013633;28;20395;-72
2023/01/06 05:52:36;;;;;;;1.40;0.87;;;7.00;99.90;;;;;;5013378;28;20898;-75
2023/01/06 05:55:01;;;;;;;1.40;0.87;;;7.10;99.90;;;;;;5013869;28;20380;-72
2023/01/06 05:57:27;;;;;;;1.27;0.80;;;7.10;99.90;;;;;;5013983;28;20381;-72
2023/01/06 05:59:52;;;;;;;1.10;1.00;;;7.20;99.90;;;;;;5013564;28;20401;-72
2023/01/06 06:02:18;;;;;;;1.02;0.70;;;7.20;99.90;;;;;;5013792;28;20890;-72
2023/01/06 06:04:45;;;;;;;0.60;0.60;;;7.30;99.90;;;;;;5013332;28;20396;-72
2023/01/06 06:07:10;;;;;;;1.10;0.80;;;7.30;99.90;;;;;;5013777;28;20389;-72
2023/01/06 06:09:36;;;;;;;0.80;0.80;;;7.30;99.90;;;;;;5013259;28;20400;-72
2023/01/06 06:12:01;;;;;;;1.40;1.10;;;7.30;99.90;;;;;;5013600;28;20864;-72
2023/01/06 06:14:27;;;;;;;1.00;0.90;;;7.40;99.90;;;;;;5011672;28;20380;-73
2023/01/06 06:16:52;;;;;;;2.80;1.20;;;7.30;99.90;;;;;;5013659;28;20384;-73
2023/01/06 06:19:18;;;;;;;0.77;0.77;;;7.20;99.90;;;;;;5013056;28;20457;-72
2023/01/06 06:21:43;;;;;;;1.10;0.95;;;7.20;99.90;;;;;;5013373;28;20408;-72
2023/01/06 06:24:09;;;;;;;1.50;1.38;;;7.10;99.90;;;;;;5012285;28;20410;-72
2023/01/06 06:26:34;;;;;;;1.60;1.50;;;6.90;99.90;;;;;;5013322;28;20502;-73
2023/01/06 06:29:00;;;;;;;1.50;1.40;;;6.80;99.90;;;;;;5013306;28;20867;-73
2023/01/06 06:31:27;;;;;;;1.30;1.20;;;6.80;99.90;;;;;;5013268;28;20391;-73
2023/01/06 06:33:55;;;;;;;1.30;1.20;;;6.70;99.90;;;;;;5012179;28;20401;-73
2023/01/06 06:36:21;;;;;;;1.30;1.20;;;6.70;99.90;;;;;;5011802;28;20491;-73
2023/01/06 06:38:49;;;;;;;1.10;1.00;;;6.80;99.90;;;;;;5028001;28;20491;-73
2023/01/06 06:41:15;;;;;;;1.20;1.10;;;6.80;99.90;;;;;;5013029;28;20527;-73
2023/01/06 06:43:41;;;;;;;1.30;1.10;;;6.80;99.90;;;;;;5012348;28;20384;-73
2023/01/06 06:46:07;;;;;;;0.95;0.90;;;6.80;99.90;;;;;;5012943;28;20412;-72
2023/01/06 06:48:32;;;;;;;1.23;1.13;;;6.90;99.90;;;;;;5012693;28;20480;-73
2023/01/06 06:51:00;;;;;;;1.60;1.30;;;6.90;99.90;;;;;;5012689;28;20460;-73
2023/01/06 06:53:26;;;;;;;1.40;1.10;;;6.90;99.90;;;;;;5012097;28;20385;-73
2023/01/06 06:55:51;;;;;;;1.30;1.10;;;6.90;99.90;;;;;;5012403;28;20415;-74
2023/01/06 06:58:17;;;;;;;1.25;1.15;;;6.90;99.90;;;;;;5012800;28;20484;-73
2023/01/06 07:00:43;;;;;;;1.10;1.00;;;7.00;99.90;;;;;;5012652;28;20389;-73
2023/01/06 07:03:08;;;;;;;1.30;1.00;;;7.00;99.90;;;;;;5011914;28;20455;-73
2023/01/06 07:05:34;;;;;;;1.20;1.10;;;7.00;99.90;;;;;;5012297;28;20482;-73
2023/01/06 07:07:59;;;;;;;1.25;1.15;;;7.00;99.90;;;;;;5012465;28;20392;-73
2023/01/06 07:10:25;;;;;;;1.40;1.30;;;7.00;99.90;;;;;;5012146;28;20523;-73
2023/01/06 07:12:50;;;;;;;1.40;1.30;;;7.10;99.90;;;;;;5011532;28;20404;-73
2023/01/06 07:15:16;;;;;;;2.20;1.23;;;7.10;99.90;;;;;;5012418;28;20599;-73
2023/01/06 07:17:41;;;;;;;1.20;1.10;;;7.10;99.90;;;;;;5012321;28;20400;-72
2023/01/06 07:20:08;;;;;;;1.38;1.27;;;7.20;99.90;;;;;;5011824;28;20408;-72
2023/01/06 07:22:38;;;;;;;0.80;0.80;;;7.20;99.90;;;;;;5033388;23;20523;-72
2023/01/06 07:25:06;;;;;;;1.27;1.17;;;7.20;99.90;;;;;;5012142;28;20397;-72
2023/01/06 07:27:32;;;;;;;2.90;1.20;;;7.40;99.90;;;;;;5012158;28;20455;-72
2023/01/06 07:29:57;;;;;;;1.20;1.10;;;7.30;99.90;;;;;;5012138;28;20392;-72
2023/01/06 07:32:23;;;;;;;1.30;1.20;;;7.40;99.90;;;;;;4995769;28;20391;-72
2023/01/06 07:34:48;;;;;;;2.00;1.20;;;7.50;99.90;;;;;;4991804;28;20877;-72
2023/01/06 07:37:14;;;;;;;1.60;1.10;;;7.50;99.90;;;;;;4992927;28;20459;-72
2023/01/06 07:39:39;;;;;;;1.30;1.20;;;7.50;99.90;;;;;;4992154;28;20896;-72
2023/01/06 07:42:07;;;;;;;1.10;1.00;;;7.50;99.90;;;;;;4992491;28;20394;-72
2023/01/06 07:44:33;;;;;;;1.00;0.90;;;7.50;99.90;;;;;;4991565;28;20422;-72
2023/01/06 07:46:58;;;;;;;2.00;1.00;;;7.60;99.90;;;;;;4992192;28;20836;-72
2023/01/06 07:49:24;;;;;;;1.85;1.15;;;7.70;99.90;;;;;;4992724;28;20405;-72
2023/01/06 07:51:49;;;;;;;3.30;1.20;;;7.80;99.90;;;;;;4991767;28;20406;-72
2023/01/06 07:54:15;;;;;;;1.70;1.07;;;7.80;99.90;;;;;;4991527;28;20477;-72
2023/01/06 07:56:42;;;;;;;1.37;1.07;;;7.80;99.90;;;;;;4992146;28;20811;-71
2023/01/06 07:59:07;;;;;;;1.83;1.10;;;7.90;99.90;;;;;;4990934;28;20402;-72
2023/01/06 08:01:33;;;;;;;1.10;0.90;;;7.90;99.90;;;;;;4991693;28;20900;-72
2023/01/06 08:03:58;;;;;;;1.20;0.90;;;7.90;99.90;;;;;;4991585;28;20519;-71
2023/01/06 08:06:24;;;;;;;1.20;1.00;;;8.00;99.90;;;;;;4976920;28;20967;-71
2023/01/06 08:08:49;;;;;;;1.00;0.90;;;8.00;99.90;;;;;;4991783;28;20397;-73
2023/01/06 08:11:15;;;;;;;1.83;1.40;;;7.90;99.90;;;;;;4991754;28;20537;-72
2023/01/06 08:13:40;;;;;;;1.53;1.43;;;8.00;99.90;;;;;;4991069;28;20481;-72
2023/01/06 08:16:07;;;;;;;1.70;1.10;;;8.00;99.90;;;;;;4991435;28;20402;-71
2023/01/06 08:18:33;;;;;;;1.25;1.15;;;8.10;99.90;;;;;;4974628;28;20928;-72
2023/01/06 08:21:04;;;;;;;1.30;1.20;;;8.10;99.90;;;;;;4991032;28;20761;-72
2023/01/06 08:23:30;;;;;;;1.50;1.40;;;8.10;99.90;;;;;;4991017;28;20741;-72
2023/01/06 08:26:13;;;;;;;3.60;1.40;;;8.20;99.90;;;;;;4991253;28;20414;-71
2023/01/06 08:28:40;;;;;;;1.50;1.20;;;8.20;99.90;;;;;;4991686;28;20753;-71
2023/01/06 08:31:17;;;;;;;2.28;1.27;;;8.30;99.90;;;;;;4991250;28;20489;-71
2023/01/06 08:33:43;;;;;;;3.65;1.30;;;8.40;99.90;;;;;;4973394;28;20422;-71
2023/01/06 08:36:13;;;;;;;1.40;1.20;;;8.50;99.90;;;;;;4991168;28;20464;-72
2023/01/06 08:38:38;;;;;;;1.40;1.30;;;8.50;99.90;;;;;;4974056;28;20402;-72
2023/01/06 08:41:05;;;;;;;2.05;1.38;;;8.50;99.90;;;;;;4991185;28;20526;-71
2023/01/06 08:43:30;;;;;;;1.47;1.33;;;8.50;99.90;;;;;;4990556;28;20493;-72
2023/01/06 08:46:01;;;;;;;2.20;1.47;;;8.70;99.90;;;;;;4991075;28;20516;-71
2023/01/06 08:48:27;;;;;;;2.60;2.10;;;8.80;99.90;;;;;;4991347;28;20462;-71
2023/01/06 08:50:53;;;;;;;2.80;2.40;;;8.80;99.90;;;;;;4990855;28;20382;-71
2023/01/06 08:53:19;;;;;;;2.00;1.50;;;8.90;99.90;;;;;;4990580;28;20382;-71
2023/01/06 08:55:44;;;;;;;1.70;0.70;;;9.10;99.90;;;;;;4990941;28;20578;-71
2023/01/06 08:58:10;;;;;;;1.20;0.80;;;9.70;99.90;;;;;;4991298;28;20444;-72
2023/01/06 09:00:38;;;;;;;0.90;0.50;;;9.90;99.90;;;;;;4991060;28;20399;-71
2023/01/06 09:03:04;;;;;;;1.23;0.50;;;10.20;99.90;;;;;;4990521;28;20489;-72
2023/01/06 09:05:29;;;;;;;0.40;0.30;;;10.40;99.90;;;;;;4979991;28;20818;-72
2023/01/06 09:07:55;;;;;;;0.60;0.40;;;10.50;99.90;;;;;;4991105;28;20929;-71
2023/01/06 09:10:21;;;;;;;0.60;0.40;;;10.70;99.90;;;;;;4991159;28;20521;-71
2023/01/06 09:12:47;;;;;;;0.50;0.40;;;10.80;99.90;;;;;;4990075;28;20413;-71
2023/01/06 09:15:13;;;;;;;1.70;0.47;;;10.80;99.90;;;;;;4991007;28;20771;-72
2023/01/06 09:17:38;;;;;;;0.80;0.53;;;10.80;99.90;;;;;;4991027;28;20473;-72
2023/01/06 09:20:04;;;;;;;0.60;0.40;;;10.80;99.90;;;;;;4991136;28;20398;-72
2023/01/06 09:22:30;;;;;;;0.60;0.50;;;10.80;99.90;;;;;;4975862;28;20489;-71
2023/01/06 09:24:56;;;;;;;0.50;0.40;;;10.90;99.90;;;;;;4990716;28;20498;-72
2023/01/06 09:27:21;;;;;;;1.27;0.40;;;10.90;99.90;;;;;;4990896;28;20395;-71
2023/01/06 09:29:47;;;;;;;0.90;0.40;;;11.00;99.90;;;;;;4981751;28;20394;-72
2023/01/06 09:32:12;;;;;;;0.60;0.50;;;11.00;99.90;;;;;;4990834;28;20390;-71
2023/01/06 09:34:38;;;;;;;2.60;0.90;;;11.00;99.90;;;;;;4990186;28;20414;-72
2023/01/06 09:37:03;;;;;;;1.10;0.90;;;11.10;99.90;;;;;;4990831;28;20402;-72
2023/01/06 09:39:29;;;;;;;1.73;0.70;;;11.00;99.90;;;;;;4990533;28;20765;-72
2023/01/06 09:42:03;;;;;;;1.23;0.70;;;11.10;99.90;;;;;;4990469;28;20489;-71
2023/01/06 09:44:30;;;;;;;1.70;0.80;;;11.20;99.90;;;;;;4989933;28;20396;-72
2023/01/06 09:46:58;;;;;;;1.00;0.73;;;11.10;99.90;;;;;;4990666;28;20823;-72
2023/01/06 09:49:56;;;;;;;1.35;0.93;;;11.20;99.90;;;;;;4994077;28;20386;-71
2023/01/06 09:52:28;;;;;;;1.20;0.60;;;11.20;99.90;;;;;;4967041;28;20441;-72
2023/01/06 09:55:02;;;;;;;0.90;0.60;;;11.30;99.90;;;;;;4974631;28;20388;-71
2023/01/06 09:57:33;;;;;;;1.05;0.50;;;11.20;99.90;;;;;;4974924;28;20395;-71
2023/01/06 10:00:28;;;;;;;0.77;0.60;;;11.20;99.90;;;;;;4976297;28;20388;-71
2023/01/06 10:02:55;;;;;;;0.60;0.60;;;11.30;99.90;;;;;;4981946;28;20489;-72
2023/01/06 10:05:45;;;;;;;0.60;0.60;;;11.30;99.90;;;;;;4994069;28;20410;-72
2023/01/06 10:08:38;;;;;;;0.70;0.60;;;11.30;99.90;;;;;;4976782;28;20390;-72
2023/01/06 10:11:38;;;;;;;1.43;0.70;;;11.40;99.90;;;;;;4993837;28;20481;-72
2023/01/06 10:14:28;;;;;;;0.70;0.55;;;11.40;99.90;;;;;;4993420;28;20394;-72
2023/01/06 10:17:06;;;;;;;1.10;0.50;;;11.50;99.90;;;;;;4993861;28;20417;-72
2023/01/06 10:19:50;;;;;;;1.40;0.40;;;11.50;93.70;;;;;;4993947;28;20880;-73
2023/01/06 10:22:24;;;;;;;0.77;0.52;;;11.60;54.30;;;;;;4993716;28;20884;-73
2023/01/06 10:25:05;;;;;;;2.10;0.50;;;11.70;18.60;;;;;;4993324;28;20968;-73
2023/01/06 10:27:41;;;;;;;0.50;0.43;;;11.90;1.40;;;;;;4993756;28;20456;-73
2023/01/06 10:30:24;;;;;;;0.55;0.40;;;11.90;3.90;;;;;;4993739;28;20445;-73
2023/01/06 10:32:50;;;;;;;0.70;0.40;;;12.00;1.00;;;;;;4992911;28;20904;-73
2023/01/06 10:35:19;;;;;;;1.40;0.88;;;12.10;1.00;;;;;;4993690;28;20539;-73
2023/01/06 10:37:47;;;;;;;0.70;0.60;;;12.00;1.00;;;;;;4993718;28;20478;-73
2023/01/06 10:40:24;;;;;;;1.30;0.40;;;12.00;1.00;;;;;;4993860;28;20385;-72
2023/01/06 10:43:02;;;;;;;0.60;0.40;;;12.00;1.00;;;;;;4992293;28;20930;-72
2023/01/06 10:45:41;;;;;;;1.50;0.40;;;12.10;1.00;;;;;;4975954;28;20415;-72
2023/01/06 10:48:19;;;;;;;0.50;0.50;;;12.00;1.00;;;;;;4993347;28;20399;-72
2023/01/06 10:50:44;;;;;;;0.60;0.40;;;12.00;1.00;;;;;;4993326;28;20958;-72
2023/01/06 10:53:12;;;;;;;0.50;0.40;;;12.30;1.00;;;;;;4992092;28;20394;-72
2023/01/06 10:55:45;;;;;;;0.63;0.50;;;12.50;1.00;;;;;;4993335;28;20386;-73
2023/01/06 10:58:39;;;;;;;0.50;0.40;;;12.10;1.00;;;;;;4993201;28;20406;-72
2023/01/06 11:01:15;;;;;;;0.60;0.40;;;12.20;1.00;;;;;;4992616;28;20750;-72
2023/01/06 11:03:41;;;;;;;0.60;0.40;;;12.00;1.00;;;;;;4992335;28;20383;-73
2023/01/06 11:06:26;;;;;;;0.60;0.40;;;12.00;1.00;;;;;;4993149;28;20465;-73
2023/01/06 11:08:52;;;;;;;0.50;0.40;;;12.00;1.00;;;;;;4992429;28;20896;-73
2023/01/06 11:11:19;;;;;;;0.50;0.40;;;12.00;1.00;;;;;;4992938;28;20394;-73
2023/01/06 11:13:51;;;;;;;0.50;0.40;;;12.20;1.00;;;;;;4992143;28;20401;-73
2023/01/06 11:16:30;;;;;;;1.63;1.20;;;12.30;1.00;;;;;;4975793;28;20900;-73
2023/01/06 11:19:07;;;;;;;0.60;0.40;;;12.40;1.00;;;;;;4992593;28;20457;-72
2023/01/06 11:21:41;;;;;;;1.00;0.50;;;12.70;1.00;;;;;;4992618;28;20410;-72
2023/01/06 11:24:20;;;;;;;0.50;0.40;;;12.80;99.90;;;;;;4991965;28;20457;-72
2023/01/06 11:26:59;;;;;;;0.40;0.30;;;13.40;1.00;;;;;;4990706;28;20421;-72
2023/01/06 11:29:33;;;;;;;0.60;0.30;;;13.80;48.50;;;;;;4991318;28;20820;-73
2023/01/06 11:32:24;;;;;;;1.00;0.60;;;14.30;99.90;;;;;;4992451;28;20423;-73
2023/01/06 11:35:01;;;;;;;1.00;0.40;;;14.60;1.00;;;;;;4988897;28;20446;-73
2023/01/06 11:37:39;;;;;;;0.50;0.40;;;14.60;99.90;;;;;;4986288;28;20398;-73
2023/01/06 11:40:28;;;;;;;0.50;0.40;;;14.90;24.30;;;;;;4992587;28;20469;-74
2023/01/06 11:42:58;;;;;;;0.40;0.38;;;15.10;99.90;;;;;;4985465;28;20398;-72
2023/01/06 11:45:37;;;;;;;0.50;0.38;;;15.10;1.00;;;;;;4992208;28;20451;-72
2023/01/06 11:48:19;;;;;;;0.60;0.30;;;15.30;99.90;;;;;;4989488;28;20485;-72
2023/01/06 11:50:57;;;;;;;0.70;0.30;;;15.20;1.00;;;;;;4992303;28;20382;-72
2023/01/06 11:53:25;;;;;;;0.40;0.30;;;14.70;1.00;;;;;;4991399;28;20405;-73
2023/01/06 11:56:06;;;;;;;0.50;0.40;;;15.00;1.00;;;;;;4991626;28;20437;-72
2023/01/06 11:58:44;;;;;;;0.50;0.30;;;15.50;1.00;;;;;;4992009;28;20383;-72
2023/01/06 12:01:18;;;;;;;0.70;0.30;;;15.50;1.00;;;;;;4991961;28;20398;-72
2023/01/06 12:03:46;;;;;;;0.60;0.30;;;15.30;1.00;;;;;;4991202;28;20382;-73
2023/01/06 12:06:12;;;;;;;0.60;0.40;;;14.80;1.00;;;;;;4991891;28;20903;-72
2023/01/06 12:08:45;;;;;;;0.40;0.30;;;14.50;99.90;;;;;;4991876;28;20434;-73
2023/01/06 12:11:23;;;;;;;0.70;0.40;;;14.20;1.00;;;;;;4990709;28;20413;-73
2023/01/06 12:13:49;;;;;;;0.50;0.32;;;14.20;99.90;;;;;;4991014;28;20405;-73
2023/01/06 12:16:22;;;;;;;0.50;0.40;;;14.60;1.00;;;;;;4991680;28;20749;-72
2023/01/06 12:18:49;;;;;;;0.50;0.30;;;15.10;59.00;;;;;;4991419;28;20439;-74
2023/01/06 12:21:29;;;;;;;0.50;0.30;;;15.30;1.00;;;;;;4991443;28;20421;-73
2023/01/06 12:23:58;;;;;;;0.95;0.30;;;15.20;1.00;;;;;;4990861;28;20394;-73
2023/01/06 12:26:24;;;;;;;0.50;0.33;;;15.00;1.00;;;;;;4991633;28;20397;-73
2023/01/06 12:28:52;;;;;;;0.60;0.30;;;14.10;1.00;;;;;;4991156;28;20398;-73
2023/01/06 12:31:33;;;;;;;0.70;0.40;;;13.50;1.00;;;;;;4991220;28;20477;-73
2023/01/06 12:34:03;;;;;;;0.50;0.38;;;13.80;99.90;;;;;;4990733;28;20908;-73
2023/01/06 12:36:58;;;;;;;0.60;0.40;;;13.50;99.90;;;;;;4991414;28;20410;-73
2023/01/06 12:39:44;;;;;;;0.47;0.30;;;12.90;1.00;;;;;;4991248;28;20901;-73
2023/01/06 12:42:26;;;;;;;0.90;0.50;;;12.70;1.00;;;;;;4982972;28;20405;-73
2023/01/06 12:45:14;;;;;;;1.65;0.90;;;12.40;99.90;;;;;;4991010;28;20386;-73
2023/01/06 12:48:00;;;;;;;0.90;0.60;;;12.40;99.90;;;;;;4971908;28;20430;-73
2023/01/06 12:50:41;;;;;;;1.65;0.95;;;12.40;1.00;;;;;;4971493;28;20499;-73
2023/01/06 12:53:13;;;;;;;0.70;0.50;;;12.60;1.00;;;;;;4971062;28;20392;-73
2023/01/06 12:55:50;;;;;;;0.70;0.40;;;12.40;1.00;;;;;;4957872;28;20418;-73
2023/01/06 12:58:47;;;;;;;0.50;0.50;;;12.30;1.00;;;;;;4990912;28;20453;-73
2023/01/06 13:01:38;;;;;;;0.90;0.40;;;12.20;1.00;;;;;;4991194;28;20398;-73
2023/01/06 13:04:06;;;;;;;1.02;0.40;;;12.20;99.90;;;;;;4990529;28;20744;-73
2023/01/06 13:06:37;;;;;;;0.50;0.30;;;12.20;99.90;;;;;;4991032;28;20745;-73
2023/01/06 13:09:09;;;;;;;0.60;0.40;;;12.20;99.90;;;;;;4990608;28;20911;-73
2023/01/06 13:11:41;;;;;;;1.40;0.50;;;12.20;99.90;;;;;;4980195;28;20409;-73
2023/01/06 13:14:36;;;;;;;0.50;0.35;;;12.20;1.00;;;;;;4990292;28;20386;-73
2023/01/06 13:17:10;;;;;;;0.70;0.40;;;12.20;1.00;;;;;;4990962;28;20774;-72